createdAt,value
2018-03-24T00:00:43.752Z,13.93
2018-03-24T00:03:10.079Z,13.23
2018-03-24T00:05:36.311Z,14.80
2018-03-24T00:08:02.543Z,14.33
2018-03-24T00:10:28.976Z,14.90
2018-03-24T00:12:55.275Z,14.07
2018-03-24T00:15:21.621Z,13.47
2018-03-24T00:17:47.880Z,14.63
2018-03-24T00:20:14.900Z,14.27
2018-03-24T00:22:41.163Z,15.60
2018-03-24T00:25:07.483Z,14.30
2018-03-24T00:27:33.754Z,14.47
2018-03-24T00:30:00.074Z,15.73
2018-03-24T00:32:27.164Z,15.17
2018-03-24T00:34:53.503Z,16.37
2018-03-24T00:37:19.855Z,15.37
2018-03-24T00:39:46.063Z,15.77
2018-03-24T00:42:12.370Z,16.83
2018-03-24T00:44:38.671Z,16.10
2018-03-24T00:47:04.913Z,16.20
2018-03-24T00:49:31.152Z,16.63
2018-03-24T00:51:57.396Z,17.03
2018-03-24T00:54:23.665Z,16.70
2018-03-24T00:56:50.715Z,17.40
2018-03-24T00:59:17.043Z,16.10
2018-03-24T01:01:43.251Z,16.10
2018-03-24T01:04:09.550Z,16.20
2018-03-24T01:06:35.850Z,18.00
2018-03-24T01:09:02.135Z,16.30
2018-03-24T01:11:28.369Z,16.40
2018-03-24T01:13:54.732Z,16.27
2018-03-24T01:16:21.751Z,18.27
2018-03-24T01:18:48.030Z,15.90
2018-03-24T01:21:14.336Z,18.00
2018-03-24T01:23:40.602Z,17.33
2018-03-24T01:26:06.922Z,16.03
2018-03-24T01:28:33.186Z,17.07
2018-03-24T01:30:59.522Z,17.00
2018-03-24T01:33:25.843Z,16.97
2018-03-24T01:35:52.104Z,16.07
2018-03-24T01:38:18.398Z,17.33
2018-03-24T01:40:45.405Z,15.47
2018-03-24T01:43:11.675Z,17.10
2018-03-24T01:45:37.994Z,16.73
2018-03-24T01:48:04.257Z,17.20
2018-03-24T01:50:30.611Z,17.00
2018-03-24T01:52:56.954Z,16.67
2018-03-24T01:55:23.263Z,15.87
2018-03-24T01:57:50.556Z,17.93
2018-03-24T02:00:16.787Z,17.90
2018-03-24T02:02:43.037Z,17.17
2018-03-24T02:48:49.451Z,16.13
2018-03-24T02:51:15.675Z,18.20
2018-03-24T02:53:41.968Z,16.50
2018-03-24T02:56:08.301Z,18.23
2018-03-24T02:58:34.665Z,17.80
2018-03-24T03:01:01.686Z,18.50
2018-03-24T03:03:28.157Z,18.90
2018-03-24T03:05:54.479Z,18.43
2018-03-24T03:08:20.741Z,18.60
2018-03-24T03:10:47.061Z,17.80
2018-03-24T03:13:13.372Z,18.83
2018-03-24T03:15:40.397Z,19.90
2018-03-24T03:18:06.751Z,17.80
2018-03-24T03:20:33.777Z,17.80
2018-03-24T03:23:00.904Z,18.90
2018-03-24T03:25:27.212Z,18.80
2018-03-24T03:27:53.555Z,19.00
2018-03-24T03:30:24.860Z,18.20
2018-03-24T03:32:51.159Z,18.30
2018-03-24T03:35:17.462Z,17.30
2018-03-24T03:37:43.697Z,19.10
2018-03-24T03:40:09.968Z,18.00
2018-03-24T03:42:36.234Z,19.30
2018-03-24T03:45:02.602Z,17.63
2018-03-24T03:47:29.649Z,20.43
2018-03-24T03:49:56.672Z,19.10
2018-03-24T03:52:23.005Z,18.53
2018-03-24T03:54:49.275Z,20.40
2018-03-24T03:57:15.628Z,20.43
2018-03-24T03:59:41.955Z,21.23
2018-03-24T04:02:08.207Z,19.30
2018-03-24T04:04:34.424Z,18.57
2018-03-24T05:25:56.988Z,21.03
2018-03-24T05:28:23.328Z,22.77
2018-03-24T05:30:49.542Z,22.00
2018-03-24T05:33:15.849Z,20.63
2018-03-24T05:35:57.794Z,21.50
2018-03-24T05:38:24.080Z,21.80
2018-03-24T05:40:50.432Z,20.60
2018-03-24T05:43:16.758Z,21.60
2018-03-24T05:45:42.980Z,22.53
2018-03-24T05:48:09.257Z,23.27
2018-03-24T05:50:35.562Z,20.90
2018-03-24T05:53:01.832Z,21.23
2018-03-24T05:55:28.111Z,23.77
2018-03-24T05:57:54.435Z,22.00
2018-03-24T06:00:20.773Z,21.70
2018-03-24T06:02:47.116Z,20.67
2018-03-24T06:05:13.419Z,23.70
2018-03-24T06:07:39.668Z,21.17
2018-03-24T06:10:05.919Z,21.10
2018-03-24T06:12:32.203Z,23.13
2018-03-24T06:14:59.224Z,22.00
2018-03-24T06:17:25.492Z,21.40
2018-03-24T06:19:51.831Z,21.97
2018-03-24T06:22:18.193Z,20.27
2018-03-24T06:24:44.499Z,21.83
2018-03-24T06:27:10.733Z,20.83
2018-03-24T06:29:37.018Z,21.00
2018-03-24T06:32:03.390Z,23.00
2018-03-24T06:34:44.602Z,25.70
2018-03-24T06:37:14.832Z,23.00
2018-03-24T06:39:41.112Z,21.03
2018-03-24T06:42:07.374Z,23.03
2018-03-24T06:44:33.695Z,23.57
2018-03-24T06:46:59.964Z,23.43
2018-03-24T06:49:26.309Z,22.70
2018-03-24T06:51:52.654Z,20.40
2018-03-24T06:54:18.972Z,21.70
2018-03-24T06:56:45.253Z,22.80
2018-03-24T06:59:11.476Z,22.30
2018-03-24T07:01:37.744Z,21.90
2018-03-24T07:04:04.759Z,18.93
2018-03-24T07:06:30.993Z,22.00
2018-03-24T07:08:57.280Z,20.53
2018-03-24T07:11:25.541Z,20.70
2018-03-24T07:13:51.820Z,22.10
2018-03-24T07:16:18.260Z,22.07
2018-03-24T07:18:44.559Z,21.70
2018-03-24T07:21:10.858Z,21.80
2018-03-24T07:23:37.899Z,21.70
2018-03-24T07:26:04.269Z,21.40
2018-03-24T07:28:41.613Z,22.73
2018-03-24T07:31:07.905Z,23.03
2018-03-24T07:33:34.949Z,21.20
2018-03-24T07:36:01.294Z,21.63
2018-03-24T07:38:27.520Z,21.37
2018-03-24T07:40:53.820Z,21.20
2018-03-24T07:43:20.142Z,21.37
2018-03-24T07:45:47.184Z,21.27
2018-03-24T07:48:13.424Z,21.77
2018-03-24T07:50:39.683Z,23.00
2018-03-24T07:53:06.026Z,23.17
2018-03-24T07:55:32.236Z,23.80
2018-03-24T07:57:58.502Z,22.03
2018-03-24T08:00:24.719Z,20.97
2018-03-24T08:02:59.589Z,21.27
2018-03-24T08:05:26.842Z,22.00
2018-03-24T08:07:53.926Z,21.50
2018-03-24T08:10:20.183Z,21.67
2018-03-24T08:12:47.225Z,21.90
2018-03-24T08:15:13.573Z,22.43
2018-03-24T08:17:39.946Z,20.03
2018-03-24T08:20:07.296Z,21.77
2018-03-24T08:22:34.368Z,21.37
2018-03-24T08:25:02.484Z,20.80
2018-03-24T08:27:28.769Z,19.73
2018-03-24T08:29:55.098Z,21.43
2018-03-24T08:32:21.470Z,21.60
2018-03-24T08:34:47.793Z,22.33
2018-03-24T08:37:14.055Z,21.23
2018-03-24T08:39:40.393Z,22.70
2018-03-24T08:42:06.769Z,22.80
2018-03-24T08:44:33.786Z,22.60
2018-03-24T08:47:00.055Z,20.77
2018-03-24T08:49:26.413Z,21.50
2018-03-24T08:51:52.752Z,19.90
2018-03-24T08:54:19.981Z,22.23
2018-03-24T08:56:46.226Z,22.50
2018-03-24T08:59:12.469Z,21.97
2018-03-24T09:01:38.737Z,21.07
2018-03-24T09:04:05.152Z,21.77
2018-03-24T09:06:31.450Z,20.73
2018-03-24T09:08:58.458Z,23.20
2018-03-24T09:11:26.771Z,23.87
2018-03-24T09:13:53.004Z,22.67
2018-03-24T09:16:19.306Z,23.80
2018-03-24T09:18:45.584Z,23.30
2018-03-24T09:21:12.106Z,23.40
2018-03-24T09:23:38.380Z,23.77
2018-03-24T09:26:04.667Z,23.37
2018-03-24T09:28:49.143Z,21.90
2018-03-24T09:31:15.500Z,24.07
2018-03-24T09:33:41.826Z,23.60
2018-03-24T09:36:08.884Z,22.57
2018-03-24T09:38:35.895Z,22.23
2018-03-24T09:41:02.168Z,23.83
2018-03-24T09:43:28.498Z,23.53
2018-03-24T09:45:54.735Z,24.33
2018-03-24T09:48:20.974Z,22.80
2018-03-24T09:50:47.988Z,23.47
2018-03-24T09:53:14.998Z,21.80
2018-03-24T09:55:41.255Z,23.30
2018-03-24T09:58:07.588Z,23.70
2018-03-24T10:00:33.877Z,23.73
2018-03-24T10:03:00.114Z,23.77
2018-03-24T10:05:27.118Z,23.57
2018-03-24T10:07:53.359Z,22.83
2018-03-24T10:10:19.628Z,23.60
2018-03-24T10:12:45.892Z,24.53
2018-03-24T10:15:12.129Z,23.80
2018-03-24T10:17:38.346Z,24.70
2018-03-24T10:20:04.654Z,26.30
2018-03-24T10:22:52.082Z,26.00
2018-03-24T10:25:18.326Z,25.43
2018-03-24T10:27:44.574Z,26.57
2018-03-24T10:30:10.859Z,27.47
2018-03-24T10:32:37.124Z,26.80
2018-03-24T10:35:05.249Z,26.70
2018-03-24T10:37:31.499Z,24.47
2018-03-24T10:39:57.731Z,24.07
2018-03-24T10:42:24.031Z,25.50
2018-03-24T10:44:50.267Z,25.40
2018-03-24T10:47:16.487Z,25.10
2018-03-24T10:49:42.724Z,24.87
2018-03-24T10:52:08.982Z,24.53
2018-03-24T10:54:35.215Z,22.50
2018-03-24T10:57:01.438Z,24.57
2018-03-24T10:59:27.687Z,21.83
2018-03-24T11:01:53.924Z,22.67
2018-03-24T11:04:20.179Z,24.43
2018-03-24T11:06:46.410Z,22.60
2018-03-24T11:09:12.683Z,21.70
2018-03-24T11:11:38.949Z,21.87
2018-03-24T11:14:05.198Z,22.30
2018-03-24T11:16:31.415Z,22.30
2018-03-24T11:18:57.656Z,22.50
2018-03-24T11:21:23.895Z,19.13
2018-03-24T11:23:50.154Z,17.60
2018-03-24T11:26:16.363Z,19.47
2018-03-24T11:28:42.607Z,19.70
2018-03-24T11:31:08.866Z,18.63
2018-03-24T11:33:35.099Z,18.30
2018-03-24T11:36:01.360Z,16.13
2018-03-24T11:38:29.068Z,17.10
2018-03-24T11:40:56.042Z,16.83
2018-03-24T11:43:23.075Z,15.60
2018-03-24T11:45:49.333Z,14.20
2018-03-24T11:48:16.339Z,14.40
2018-03-24T11:50:42.582Z,13.10
2018-03-24T11:53:08.834Z,11.37
2018-03-24T11:55:35.073Z,11.67
2018-03-24T11:58:01.305Z,12.30
2018-03-24T12:00:27.559Z,11.07
2018-03-24T12:02:53.779Z,9.13
2018-03-24T12:05:20.109Z,8.40
2018-03-24T12:07:47.094Z,9.13
2018-03-24T12:10:13.348Z,10.07
2018-03-24T12:12:39.577Z,10.73
2018-03-24T12:15:05.862Z,10.23
2018-03-24T12:17:32.140Z,11.07
2018-03-24T12:19:58.343Z,11.20
2018-03-24T12:22:25.287Z,11.50
2018-03-24T12:24:51.516Z,11.83
2018-03-24T12:27:17.724Z,12.77
2018-03-24T12:29:44.000Z,11.30
2018-03-24T12:32:10.236Z,11.83
2018-03-24T12:34:36.494Z,11.40
2018-03-24T12:37:02.731Z,12.37
2018-03-24T12:39:28.983Z,12.10
2018-03-24T12:41:55.198Z,12.17
2018-03-24T12:44:21.446Z,11.33
2018-03-24T12:46:48.342Z,12.63
2018-03-24T12:49:14.591Z,14.30
2018-03-24T12:51:40.815Z,14.10
2018-03-24T12:54:07.372Z,14.93
2018-03-24T12:56:33.602Z,14.13
2018-03-24T12:59:00.894Z,15.00
2018-03-24T13:01:27.121Z,12.93
2018-03-24T13:03:53.379Z,11.70
2018-03-24T13:06:19.652Z,11.77
2018-03-24T13:08:46.895Z,13.23
2018-03-24T13:11:13.153Z,12.20
2018-03-24T13:13:40.094Z,12.50
2018-03-24T13:16:06.367Z,13.17
2018-03-24T13:18:32.705Z,13.10
2018-03-24T13:20:59.729Z,13.70
2018-03-24T13:23:25.987Z,13.67
2018-03-24T13:25:52.217Z,13.77
2018-03-24T13:28:18.451Z,14.90
2018-03-24T13:30:44.763Z,14.03
2018-03-24T13:33:11.148Z,16.30
2018-03-24T13:35:37.414Z,14.67
2018-03-24T13:38:04.402Z,13.27
2018-03-24T13:40:30.655Z,17.53
2018-03-24T13:42:56.875Z,14.90
2018-03-24T13:45:23.858Z,16.33
2018-03-24T13:47:50.130Z,14.40
2018-03-24T13:50:16.407Z,13.83
2018-03-24T13:52:43.389Z,15.87
2018-03-24T13:55:10.381Z,15.97
2018-03-24T13:57:36.603Z,16.47
2018-03-24T14:00:02.912Z,15.97
2018-03-24T14:02:31.932Z,16.13
2018-03-24T14:04:58.983Z,15.47
2018-03-24T14:07:25.996Z,16.80
2018-03-24T14:09:52.263Z,17.00
2018-03-24T14:12:18.629Z,17.13
2018-03-24T14:14:49.660Z,16.20
2018-03-24T14:17:18.140Z,16.63
2018-03-24T14:19:44.425Z,16.43
2018-03-24T14:22:11.437Z,16.90
2018-03-24T14:24:37.679Z,17.50
2018-03-24T14:27:04.019Z,15.27
2018-03-24T14:29:34.848Z,15.83
2018-03-24T14:32:01.403Z,15.93
2018-03-24T14:34:27.711Z,16.37
2018-03-24T14:36:53.931Z,16.40
2018-03-24T14:39:20.294Z,14.47
2018-03-24T14:41:46.541Z,16.17
2018-03-24T14:44:12.829Z,15.80
2018-03-24T14:46:39.092Z,15.23
2018-03-24T14:49:05.393Z,15.37
2018-03-24T14:51:33.345Z,14.50
2018-03-24T14:53:59.617Z,16.47
2018-03-24T14:56:26.587Z,16.10
2018-03-24T14:58:52.919Z,16.87
2018-03-24T15:01:19.959Z,13.67
2018-03-24T15:03:46.329Z,12.70
2018-03-24T15:06:12.699Z,12.27
2018-03-24T15:08:38.954Z,14.70
2018-03-24T15:11:05.480Z,15.00
2018-03-24T15:13:31.857Z,13.57
2018-03-24T15:15:58.126Z,12.20
2018-03-24T15:18:24.475Z,12.70
2018-03-24T15:20:50.804Z,13.10
2018-03-24T15:23:17.052Z,11.27
2018-03-24T15:25:43.392Z,13.40
2018-03-24T15:28:09.628Z,11.03
2018-03-24T15:30:48.195Z,13.73
2018-03-24T15:33:27.476Z,11.30
2018-03-24T15:36:06.163Z,11.67
2018-03-24T15:38:32.424Z,10.97
2018-03-24T15:40:59.374Z,12.70
2018-03-24T15:43:25.628Z,11.93
2018-03-24T15:45:52.728Z,11.80
2018-03-24T15:48:19.415Z,11.00
2018-03-24T15:50:45.996Z,11.77
2018-03-24T15:53:12.986Z,11.60
2018-03-24T15:55:39.226Z,11.80
2018-03-24T15:58:05.495Z,13.30
2018-03-24T16:00:31.728Z,11.27
2018-03-24T16:02:57.986Z,11.70
2018-03-24T16:05:24.542Z,13.80
2018-03-24T16:07:50.787Z,13.30
2018-03-24T16:10:17.049Z,11.77
2018-03-24T16:12:43.302Z,12.30
2018-03-24T16:15:10.344Z,12.60
2018-03-24T16:17:36.542Z,11.90
2018-03-24T16:20:02.786Z,14.90
2018-03-24T16:22:29.031Z,14.40
2018-03-24T16:24:55.295Z,15.57
2018-03-24T16:27:21.531Z,17.37
2018-03-24T16:29:47.758Z,13.60
2018-03-24T16:32:13.992Z,15.13
2018-03-24T16:34:40.256Z,18.37
2018-03-24T16:37:06.515Z,17.90
2018-03-24T16:39:32.758Z,15.33
2018-03-24T16:41:59.042Z,13.97
2018-03-24T16:44:25.291Z,12.90
2018-03-24T16:46:51.563Z,13.00
2018-03-24T16:49:17.799Z,14.03
2018-03-24T16:51:44.088Z,12.80
2018-03-24T16:54:10.301Z,12.87
2018-03-24T16:56:36.560Z,13.47
2018-03-24T16:59:02.806Z,13.10
2018-03-24T17:01:29.038Z,13.63
2018-03-24T17:03:55.291Z,16.47
2018-03-24T17:06:21.510Z,40.47
2018-03-24T17:08:47.791Z,12.77
2018-03-24T17:11:14.768Z,13.10
2018-03-24T17:13:41.746Z,12.70
2018-03-24T17:16:08.069Z,12.90
2018-03-24T17:18:35.119Z,13.60
2018-03-24T17:21:01.366Z,12.90
2018-03-24T17:23:27.600Z,12.80
2018-03-24T17:25:53.873Z,11.60
2018-03-24T17:28:20.115Z,10.67
2018-03-24T17:30:47.126Z,11.73
2018-03-24T17:33:13.391Z,12.63
2018-03-24T17:35:40.371Z,11.20
2018-03-24T17:38:07.384Z,11.60
2018-03-24T17:40:33.607Z,11.37
2018-03-24T17:42:59.856Z,13.40
2018-03-24T17:45:26.829Z,14.50
2018-03-24T17:47:53.076Z,13.83
2018-03-24T17:50:19.288Z,12.00
2018-03-24T17:52:45.533Z,12.17
2018-03-24T17:55:11.756Z,13.30
2018-03-24T17:57:38.024Z,13.00
2018-03-24T18:00:04.331Z,12.43
2018-03-24T18:02:31.420Z,11.50
2018-03-24T18:04:57.649Z,12.10
2018-03-24T18:07:23.904Z,11.47
2018-03-24T18:09:50.113Z,12.30
2018-03-24T18:12:17.088Z,13.50
2018-03-24T18:14:44.056Z,12.50
2018-03-24T18:17:11.062Z,11.70
2018-03-24T18:19:37.307Z,12.87
2018-03-24T18:22:03.611Z,12.10
2018-03-24T18:24:29.824Z,13.20
2018-03-24T18:26:56.087Z,11.83
2018-03-24T18:29:23.056Z,11.87
2018-03-24T18:31:49.294Z,13.70
2018-03-24T18:34:15.539Z,14.00
2018-03-24T18:36:41.786Z,15.07
2018-03-24T18:39:08.024Z,14.63
2018-03-24T18:41:34.265Z,14.50
2018-03-24T18:44:00.516Z,14.13
2018-03-24T18:46:26.800Z,13.53
2018-03-24T18:48:53.051Z,12.90
2018-03-24T18:51:19.287Z,13.07
2018-03-24T18:53:45.533Z,12.20
2018-03-24T18:56:11.800Z,13.23
2018-03-24T18:58:38.758Z,14.03
2018-03-24T19:01:05.777Z,13.20
2018-03-24T19:03:32.012Z,14.07
2018-03-24T19:05:58.246Z,15.13
2018-03-24T19:08:24.496Z,19.50
2018-03-24T19:10:50.755Z,19.73
2018-03-24T19:13:17.003Z,21.00
2018-03-24T19:15:44.288Z,21.20
2018-03-24T19:18:11.299Z,19.20
2018-03-24T19:20:37.527Z,18.53
2018-03-24T19:23:03.779Z,16.60
2018-03-24T19:25:30.032Z,16.33
2018-03-24T19:27:56.285Z,13.80
2018-03-24T19:30:22.520Z,13.70
2018-03-24T19:32:48.782Z,15.60
2018-03-24T19:35:15.011Z,19.73
2018-03-24T19:37:41.280Z,17.43
2018-03-24T19:40:08.341Z,16.83
2018-03-24T19:42:34.698Z,14.07
2018-03-24T19:45:01.678Z,14.57
2018-03-24T19:47:27.918Z,12.87
2018-03-24T19:49:54.148Z,13.77
2018-03-24T19:52:21.175Z,12.40
2018-03-24T19:54:47.531Z,14.40
2018-03-24T19:57:13.776Z,11.63
2018-03-24T19:59:40.005Z,11.77
2018-03-24T20:02:06.264Z,11.00
2018-03-24T20:04:32.508Z,10.50
2018-03-24T20:07:01.367Z,11.40
2018-03-24T20:09:27.640Z,11.73
2018-03-24T20:11:54.008Z,12.17
2018-03-24T20:14:20.260Z,11.37
2018-03-24T20:16:47.295Z,12.17
2018-03-24T20:19:13.538Z,10.93
2018-03-24T20:21:39.834Z,11.00
2018-03-24T20:24:06.100Z,11.30
2018-03-24T20:26:33.524Z,11.20
2018-03-24T20:28:59.800Z,10.40
2018-03-24T20:31:26.248Z,10.60
2018-03-24T20:33:52.506Z,10.70
2018-03-24T20:36:18.857Z,11.80
2018-03-24T20:38:45.137Z,13.27
2018-03-24T20:41:12.145Z,13.63
2018-03-24T20:43:38.406Z,14.17
2018-03-24T20:46:04.997Z,11.97
2018-03-24T20:48:32.035Z,12.67
2018-03-24T20:50:58.313Z,12.53
2018-03-24T20:53:25.324Z,12.10
2018-03-24T20:55:51.608Z,12.70
2018-03-24T20:58:18.629Z,11.77
2018-03-24T21:00:44.893Z,12.43
2018-03-24T21:03:11.196Z,12.93
2018-03-24T21:05:37.485Z,12.30
2018-03-24T21:08:04.559Z,11.47
2018-03-24T21:10:31.623Z,13.30
2018-03-24T21:12:58.751Z,14.47
2018-03-24T21:15:25.095Z,14.30
2018-03-24T21:17:51.456Z,13.23
2018-03-24T21:20:17.807Z,13.50
2018-03-24T21:22:44.894Z,12.43
2018-03-24T21:25:11.167Z,13.30
2018-03-24T21:27:37.428Z,13.10
2018-03-24T21:30:03.727Z,12.53
2018-03-24T21:32:30.091Z,12.30
2018-03-24T21:34:57.059Z,12.43
2018-03-24T21:37:23.369Z,13.63
2018-03-24T21:39:49.702Z,11.50
2018-03-24T21:42:16.809Z,12.80
2018-03-24T21:44:43.056Z,15.77
2018-03-24T21:47:09.349Z,16.80
2018-03-24T21:49:36.347Z,14.23
2018-03-24T21:52:02.644Z,13.60
2018-03-24T21:54:29.006Z,11.60
2018-03-24T21:56:56.148Z,13.13
2018-03-24T21:59:22.626Z,13.70
2018-03-24T22:01:48.981Z,13.60
2018-03-24T22:04:16.282Z,14.60
2018-03-24T22:06:42.579Z,16.60
2018-03-24T22:09:09.613Z,15.03
2018-03-24T22:11:35.982Z,16.40
2018-03-24T22:14:02.232Z,19.87
2018-03-24T22:16:28.512Z,18.80
2018-03-24T22:18:54.924Z,16.93
2018-03-24T22:21:21.299Z,15.20
2018-03-24T22:23:47.571Z,16.33
2018-03-24T22:26:14.700Z,18.07
2018-03-24T22:28:41.001Z,17.07
2018-03-24T22:31:08.263Z,15.73
2018-03-24T22:33:34.587Z,17.00
2018-03-24T22:36:00.848Z,17.20
2018-03-24T22:38:27.100Z,15.47
2018-03-24T22:40:54.210Z,14.90
2018-03-24T22:43:20.476Z,14.80
2018-03-24T22:45:46.735Z,14.70
2018-03-24T22:48:13.361Z,17.13
2018-03-24T22:50:39.851Z,15.37
2018-03-24T22:53:06.955Z,15.17
2018-03-24T22:55:33.339Z,16.07
2018-03-24T22:58:00.727Z,14.07
2018-03-24T23:00:27.289Z,15.33
2018-03-24T23:02:54.494Z,15.70
2018-03-24T23:05:20.875Z,14.73
2018-03-24T23:07:47.216Z,16.07
2018-03-24T23:10:13.725Z,17.87
2018-03-24T23:12:40.163Z,16.10
2018-03-24T23:15:06.596Z,15.20
2018-03-24T23:17:32.990Z,16.43
2018-03-24T23:20:00.492Z,16.67
2018-03-24T23:22:26.881Z,18.27
2018-03-24T23:24:53.259Z,18.17
2018-03-24T23:27:20.595Z,18.40
2018-03-24T23:29:46.936Z,18.30
2018-03-24T23:32:13.274Z,20.40
2018-03-24T23:34:40.376Z,17.83
2018-03-24T23:37:06.689Z,16.70
2018-03-24T23:39:33.052Z,17.60
2018-03-24T23:41:59.439Z,17.87
2018-03-24T23:44:26.254Z,17.47
2018-03-24T23:46:52.565Z,18.50
2018-03-24T23:49:18.995Z,17.23
2018-03-24T23:51:46.066Z,17.73
2018-03-24T23:54:13.165Z,18.20
2018-03-24T23:56:39.459Z,17.20
2018-03-24T23:59:06.568Z,19.20
